Time;durP1;ratioP1;P1;durP2;ratioP2;P2;SDS_P1;SDS_P2;PMS_P1;PMS_P2;Temp;Humidity;BMP_temperature;BMP_pressure;BME280_temperature;BME280_humidity;BME280_pressure;Samples;Min_cycle;Max_cycle;Signal;HPM_P1;HPM_P2
2022/04/08 00:00:59;;;;;;;1.90;0.80;;;22.40;51.70;;;;;;5031315;28;20423;-87
2022/04/08 00:03:25;;;;;;;1.07;0.70;;;22.40;51.70;;;;;;5031405;28;20430;-87
2022/04/08 00:05:57;;;;;;;1.13;0.70;;;22.40;51.70;;;;;;5030132;28;20177;-87
2022/04/08 00:08:23;;;;;;;1.00;0.70;;;22.40;51.70;;;;;;5031565;28;20415;-87
2022/04/08 00:10:49;;;;;;;1.00;0.80;;;22.40;51.60;;;;;;5029762;28;20766;-87
2022/04/08 00:13:15;;;;;;;0.90;0.67;;;22.40;51.60;;;;;;5029854;28;20861;-87
2022/04/08 00:15:41;;;;;;;0.80;0.60;;;22.40;51.60;;;;;;5030124;28;20408;-87
2022/04/08 00:18:07;;;;;;;1.10;0.80;;;22.40;51.70;;;;;;5029740;28;20941;-87
2022/04/08 00:20:35;;;;;;;1.60;0.70;;;22.40;51.60;;;;;;5029892;28;20427;-87
2022/04/08 00:23:02;;;;;;;0.90;0.60;;;22.40;51.70;;;;;;5013185;28;20925;-87
2022/04/08 00:25:28;;;;;;;0.87;0.60;;;22.40;51.60;;;;;;5046651;28;20506;-87
2022/04/08 00:27:54;;;;;;;0.97;0.70;;;22.40;51.60;;;;;;5030283;28;20463;-87
2022/04/08 00:30:20;;;;;;;1.10;0.70;;;22.40;51.60;;;;;;5030369;28;20187;-86
2022/04/08 00:32:45;;;;;;;0.90;0.60;;;22.40;51.60;;;;;;5031536;28;20172;-87
2022/04/08 00:35:11;;;;;;;0.90;0.60;;;22.40;51.60;;;;;;5029973;28;20275;-87
2022/04/08 00:37:38;;;;;;;0.90;0.67;;;22.40;51.60;;;;;;5030524;28;20180;-87
2022/04/08 00:40:06;;;;;;;1.00;0.70;;;22.40;51.60;;;;;;5031237;28;20514;-87
2022/04/08 00:42:32;;;;;;;0.80;0.60;;;22.40;51.60;;;;;;5029811;28;20483;-87
2022/04/08 00:44:58;;;;;;;1.27;0.60;;;22.40;51.60;;;;;;5030730;28;20423;-87
2022/04/08 00:47:23;;;;;;;0.97;0.60;;;22.40;51.60;;;;;;5029957;28;20243;-87
2022/04/08 00:49:51;;;;;;;1.20;0.67;;;22.40;51.60;;;;;;5031081;28;20415;-87
2022/04/08 00:52:17;;;;;;;1.23;0.77;;;22.40;51.60;;;;;;5031391;28;20241;-87
2022/04/08 00:54:45;;;;;;;0.97;0.60;;;22.40;51.60;;;;;;5030547;28;20420;-87
2022/04/08 00:57:12;;;;;;;1.30;0.70;;;22.40;51.60;;;;;;5029530;28;20481;-87
2022/04/08 00:59:38;;;;;;;0.90;0.60;;;22.40;51.70;;;;;;5029773;28;20446;-87
2022/04/08 01:02:07;;;;;;;1.10;0.60;;;22.40;51.60;;;;;;5031213;28;20407;-87
2022/04/08 01:04:35;;;;;;;0.80;0.60;;;22.40;51.60;;;;;;5028828;28;20609;-87
2022/04/08 01:07:02;;;;;;;0.90;0.63;;;22.40;51.60;;;;;;5030336;28;20451;-87
2022/04/08 01:09:30;;;;;;;1.20;0.90;;;22.40;51.60;;;;;;5029945;28;20811;-87
2022/04/08 01:11:58;;;;;;;0.80;0.60;;;22.40;51.60;;;;;;5029448;28;20410;-87
2022/04/08 01:14:23;;;;;;;1.30;0.80;;;22.40;51.60;;;;;;5045685;28;20505;-87
2022/04/08 01:16:49;;;;;;;1.30;0.80;;;22.40;51.60;;;;;;5046249;28;20422;-87
2022/04/08 01:19:15;;;;;;;1.17;0.80;;;22.40;51.60;;;;;;5029866;28;20203;-87
2022/04/08 01:21:41;;;;;;;1.20;0.67;;;22.40;51.60;;;;;;5030019;28;20183;-87
2022/04/08 01:24:11;;;;;;;0.90;0.60;;;22.40;51.70;;;;;;5028808;28;20199;-87
2022/04/08 01:26:39;;;;;;;1.13;0.70;;;22.40;51.60;;;;;;5030198;28;20199;-87
2022/04/08 01:29:05;;;;;;;0.80;0.70;;;22.40;51.60;;;;;;5028634;28;20470;-87
2022/04/08 01:31:31;;;;;;;0.90;0.53;;;22.40;51.60;;;;;;5029398;28;20483;-87
2022/04/08 01:33:57;;;;;;;0.80;0.60;;;22.40;51.60;;;;;;5046046;28;20426;-87
2022/04/08 01:36:22;;;;;;;0.90;0.60;;;22.40;51.60;;;;;;5028645;28;20231;-87
2022/04/08 01:38:51;;;;;;;1.07;0.70;;;22.40;51.70;;;;;;5030105;28;20204;-87
2022/04/08 01:41:20;;;;;;;0.80;0.60;;;22.40;51.70;;;;;;5044429;28;20238;-87
2022/04/08 01:43:46;;;;;;;1.93;0.70;;;22.40;51.60;;;;;;5045270;28;20419;-87
2022/04/08 01:46:14;;;;;;;1.20;0.70;;;22.40;51.60;;;;;;5029904;28;20481;-87
2022/04/08 01:48:40;;;;;;;1.10;0.70;;;22.40;51.70;;;;;;5028638;28;20584;-88
2022/04/08 01:51:06;;;;;;;1.00;0.70;;;22.40;51.60;;;;;;5028900;28;20501;-87
2022/04/08 01:53:32;;;;;;;1.03;0.67;;;22.40;51.70;;;;;;5029861;28;20678;-87
2022/04/08 01:55:58;;;;;;;0.87;0.60;;;22.40;51.60;;;;;;5045449;28;20703;-87
2022/04/08 01:58:24;;;;;;;0.80;0.60;;;22.40;51.60;;;;;;5028416;28;20184;-87
2022/04/08 02:00:49;;;;;;;0.80;0.57;;;22.40;51.60;;;;;;5029454;28;20176;-87
2022/04/08 02:03:20;;;;;;;1.00;0.70;;;22.40;51.60;;;;;;5044659;28;20447;-87
2022/04/08 02:05:46;;;;;;;1.30;0.70;;;22.40;51.60;;;;;;5028884;28;20173;-87
2022/04/08 02:08:12;;;;;;;0.90;0.70;;;22.40;51.60;;;;;;5047845;28;20494;-87
2022/04/08 02:10:38;;;;;;;1.10;0.67;;;22.40;51.60;;;;;;5048773;28;20427;-87
2022/04/08 02:13:05;;;;;;;0.90;0.60;;;22.40;51.60;;;;;;5048382;28;20203;-87
2022/04/08 02:15:33;;;;;;;0.93;0.63;;;22.40;51.60;;;;;;5049062;28;20498;-87
2022/04/08 02:18:00;;;;;;;0.80;0.60;;;22.40;52.20;;;;;;5048511;28;20418;-87
2022/04/08 02:20:29;;;;;;;1.10;0.70;;;22.40;51.60;;;;;;5033112;28;20498;-87
2022/04/08 02:22:58;;;;;;;0.90;0.70;;;22.40;51.60;;;;;;5033657;28;20435;-87
2022/04/08 02:25:25;;;;;;;1.03;0.60;;;22.40;51.60;;;;;;5032321;28;20430;-87
2022/04/08 02:27:51;;;;;;;0.90;0.60;;;22.40;51.60;;;;;;5031613;28;20454;-87
2022/04/08 02:30:17;;;;;;;0.90;0.63;;;22.40;51.60;;;;;;5033690;28;20403;-86
2022/04/08 02:32:43;;;;;;;0.80;0.60;;;22.40;51.60;;;;;;5048548;28;20419;-87
2022/04/08 02:35:09;;;;;;;1.10;0.60;;;22.40;51.60;;;;;;5033424;28;20536;-86
2022/04/08 02:37:35;;;;;;;0.80;0.70;;;22.40;51.60;;;;;;5049401;28;20272;-87
2022/04/08 02:40:02;;;;;;;1.63;0.70;;;22.40;51.60;;;;;;5031422;28;20510;-86
2022/04/08 02:42:30;;;;;;;0.90;0.60;;;22.40;51.60;;;;;;5047833;28;20494;-86
2022/04/08 02:44:57;;;;;;;0.90;0.60;;;22.40;51.60;;;;;;5032043;28;20429;-86
2022/04/08 02:47:22;;;;;;;0.83;0.60;;;22.40;51.60;;;;;;5031884;28;20532;-86
2022/04/08 02:49:48;;;;;;;1.00;0.70;;;22.40;51.60;;;;;;5032614;28;20909;-86
2022/04/08 02:52:14;;;;;;;0.70;0.60;;;22.30;51.60;;;;;;5048308;28;20200;-86
2022/04/08 02:54:40;;;;;;;1.13;0.80;;;22.40;51.60;;;;;;5032051;28;20427;-86
2022/04/08 02:57:06;;;;;;;0.90;0.60;;;22.40;51.70;;;;;;5033092;28;20557;-86
2022/04/08 02:59:32;;;;;;;1.60;0.70;;;22.40;51.60;;;;;;5032307;28;20211;-87
2022/04/08 03:01:58;;;;;;;0.90;0.60;;;22.40;51.60;;;;;;5033076;28;20268;-87
2022/04/08 03:04:25;;;;;;;0.80;0.60;;;22.40;51.60;;;;;;5032173;28;20466;-87
2022/04/08 03:06:52;;;;;;;0.83;0.60;;;22.40;51.60;;;;;;5032841;28;20470;-87
2022/04/08 03:09:18;;;;;;;0.90;0.60;;;22.40;51.60;;;;;;5032396;28;20408;-86
2022/04/08 03:11:44;;;;;;;0.90;0.67;;;22.40;51.60;;;;;;5033413;28;20419;-87
2022/04/08 03:14:09;;;;;;;0.80;0.50;;;22.40;51.60;;;;;;5015651;28;20587;-86
2022/04/08 03:16:35;;;;;;;1.17;0.70;;;22.40;51.60;;;;;;5032119;28;20423;-87
2022/04/08 03:19:02;;;;;;;1.13;0.80;;;22.30;51.60;;;;;;5047621;28;20187;-86
2022/04/08 03:21:30;;;;;;;1.63;0.67;;;22.40;51.60;;;;;;5032994;28;20181;-86
2022/04/08 03:23:57;;;;;;;0.93;0.63;;;22.30;51.60;;;;;;5030636;28;20431;-87
2022/04/08 03:26:23;;;;;;;0.70;0.50;;;22.30;51.60;;;;;;5048613;28;20495;-87
2022/04/08 03:28:49;;;;;;;1.00;0.70;;;22.30;51.60;;;;;;5033138;28;20415;-86
2022/04/08 03:31:14;;;;;;;0.90;0.63;;;22.30;51.60;;;;;;5050003;28;20718;-87
2022/04/08 03:33:42;;;;;;;0.80;0.60;;;22.30;51.60;;;;;;5033668;28;20431;-87
2022/04/08 03:36:07;;;;;;;1.23;0.67;;;22.30;51.60;;;;;;5028833;28;20252;-85
2022/04/08 03:38:33;;;;;;;1.00;0.67;;;22.30;51.60;;;;;;5013886;28;20416;-85
2022/04/08 03:41:00;;;;;;;1.13;0.70;;;22.30;51.60;;;;;;5016068;28;20177;-85
2022/04/08 03:43:27;;;;;;;0.90;0.60;;;22.30;51.60;;;;;;5029762;28;20427;-85
2022/04/08 03:45:54;;;;;;;0.80;0.60;;;22.30;51.60;;;;;;5031053;28;20454;-85
2022/04/08 03:48:20;;;;;;;0.87;0.60;;;22.30;51.60;;;;;;5032764;28;20411;-85
2022/04/08 03:50:45;;;;;;;1.03;0.67;;;22.30;51.60;;;;;;5032445;28;20743;-85
2022/04/08 03:53:12;;;;;;;1.20;0.63;;;22.30;51.60;;;;;;5034415;28;20406;-85
2022/04/08 03:55:39;;;;;;;1.00;0.80;;;22.30;51.60;;;;;;5033059;28;20188;-86
2022/04/08 03:58:05;;;;;;;1.00;0.60;;;22.30;51.60;;;;;;5032805;28;20497;-85
2022/04/08 04:00:31;;;;;;;1.90;0.60;;;22.30;51.60;;;;;;5049266;28;20423;-85
2022/04/08 04:02:56;;;;;;;0.80;0.60;;;22.30;51.60;;;;;;5031456;28;20499;-86
2022/04/08 04:05:22;;;;;;;1.00;0.70;;;22.30;51.60;;;;;;5048485;28;20665;-86
2022/04/08 04:07:49;;;;;;;1.00;0.70;;;22.30;51.60;;;;;;5032984;28;20201;-85
2022/04/08 04:10:15;;;;;;;0.77;0.60;;;22.30;51.60;;;;;;5031861;28;20250;-86
2022/04/08 04:12:44;;;;;;;0.90;0.60;;;22.30;51.60;;;;;;5033284;28;20395;-86
2022/04/08 04:15:10;;;;;;;1.20;0.70;;;22.30;51.60;;;;;;5031715;28;20172;-86
2022/04/08 04:17:36;;;;;;;0.80;0.67;;;22.30;51.60;;;;;;5046207;28;20472;-86
2022/04/08 04:20:05;;;;;;;0.90;0.67;;;22.30;51.60;;;;;;5028501;28;20427;-87
2022/04/08 04:22:31;;;;;;;1.20;0.70;;;22.20;51.50;;;;;;5027430;28;20427;-87
2022/04/08 04:24:56;;;;;;;0.97;0.60;;;22.30;51.60;;;;;;5030982;28;20422;-87
2022/04/08 04:27:22;;;;;;;1.10;0.70;;;22.30;51.60;;;;;;5029015;28;20238;-87
2022/04/08 04:29:48;;;;;;;1.67;0.93;;;22.20;51.50;;;;;;5028395;28;20188;-87
2022/04/08 04:32:14;;;;;;;1.37;0.70;;;22.20;51.50;;;;;;5030320;28;20168;-86
2022/04/08 04:34:39;;;;;;;1.20;0.80;;;22.20;51.40;;;;;;5033317;28;20173;-85
2022/04/08 04:37:08;;;;;;;0.90;0.67;;;22.20;51.40;;;;;;5033433;28;20179;-85
2022/04/08 04:39:37;;;;;;;1.40;0.70;;;22.30;51.60;;;;;;5049892;28;20196;-86
2022/04/08 04:42:03;;;;;;;1.10;0.70;;;22.20;51.50;;;;;;5033743;28;20431;-85
2022/04/08 04:44:29;;;;;;;0.93;0.67;;;22.20;51.50;;;;;;5031997;28;20475;-86
2022/04/08 04:46:55;;;;;;;0.97;0.60;;;22.30;51.60;;;;;;5031329;28;20455;-86
2022/04/08 04:49:22;;;;;;;1.30;0.70;;;22.30;51.60;;;;;;5031393;28;20423;-86
2022/04/08 04:51:51;;;;;;;0.90;0.70;;;22.30;51.60;;;;;;5032565;28;20475;-85
2022/04/08 04:54:18;;;;;;;1.87;0.60;;;22.30;51.60;;;;;;5031167;28;20949;-86
2022/04/08 04:56:46;;;;;;;1.40;0.70;;;22.30;51.60;;;;;;5031278;28;20454;-86
2022/04/08 04:59:12;;;;;;;1.20;0.80;;;22.30;51.60;;;;;;5030946;28;20438;-86
2022/04/08 05:01:38;;;;;;;1.00;0.70;;;22.30;51.60;;;;;;5031343;28;20901;-86
2022/04/08 05:04:04;;;;;;;1.10;0.60;;;22.30;51.60;;;;;;5013183;28;20231;-87
2022/04/08 05:06:30;;;;;;;2.03;0.73;;;22.30;51.60;;;;;;5030170;28;20463;-85
2022/04/08 05:09:00;;;;;;;0.87;0.70;;;22.30;51.60;;;;;;5030978;28;20199;-86
2022/04/08 05:11:26;;;;;;;1.40;0.80;;;22.30;51.50;;;;;;5030971;28;20516;-85
2022/04/08 05:13:52;;;;;;;4.20;0.90;;;22.30;51.50;;;;;;5030807;28;20416;-85
2022/04/08 05:16:17;;;;;;;1.60;0.90;;;22.30;51.50;;;;;;5031264;28;20172;-85
2022/04/08 05:18:43;;;;;;;0.90;0.70;;;22.30;51.50;;;;;;5030869;28;20423;-85
2022/04/08 05:21:09;;;;;;;1.20;0.80;;;22.30;51.50;;;;;;5031350;28;20180;-86
2022/04/08 05:23:35;;;;;;;0.80;0.70;;;22.30;51.50;;;;;;5032645;28;20176;-85
2022/04/08 05:26:01;;;;;;;1.00;0.60;;;22.30;51.50;;;;;;5032843;28;20176;-85
2022/04/08 05:28:27;;;;;;;1.33;0.70;;;22.30;51.50;;;;;;5031025;28;20518;-85
2022/04/08 05:30:53;;;;;;;1.63;0.70;;;22.30;51.50;;;;;;5033038;28;20435;-84
2022/04/08 05:33:19;;;;;;;2.20;0.90;;;22.30;51.50;;;;;;5033828;28;20406;-84
2022/04/08 05:35:47;;;;;;;0.87;0.60;;;22.40;51.60;;;;;;5030852;28;20164;-85
2022/04/08 05:38:17;;;;;;;1.10;0.60;;;22.40;51.60;;;;;;5034510;28;20403;-85
2022/04/08 05:40:43;;;;;;;1.47;0.80;;;22.40;51.60;;;;;;5032574;28;20419;-85
2022/04/08 05:43:12;;;;;;;1.40;0.70;;;22.30;51.50;;;;;;5034192;28;20430;-85
2022/04/08 05:45:38;;;;;;;1.00;0.60;;;22.40;51.60;;;;;;5035564;28;20434;-85
2022/04/08 05:48:05;;;;;;;1.20;0.70;;;22.30;51.50;;;;;;5036035;28;20450;-85
2022/04/08 05:50:31;;;;;;;1.00;0.80;;;22.40;51.60;;;;;;5035564;28;20168;-85
2022/04/08 05:53:00;;;;;;;1.10;0.70;;;22.40;51.60;;;;;;5035572;28;20412;-85
2022/04/08 05:55:26;;;;;;;1.07;0.80;;;22.30;51.50;;;;;;5035934;28;20431;-85
2022/04/08 05:57:58;;;;;;;0.90;0.60;;;22.40;51.60;;;;;;5051255;28;20427;-85
2022/04/08 06:00:25;;;;;;;1.20;0.80;;;22.40;51.60;;;;;;5051376;28;20427;-85
2022/04/08 06:02:55;;;;;;;1.00;0.70;;;22.40;51.30;;;;;;5034241;28;20407;-85
2022/04/08 06:05:29;;;;;;;0.90;0.60;;;22.40;51.60;;;;;;5034104;28;20407;-84
2022/04/08 06:07:58;;;;;;;1.10;0.60;;;22.40;51.60;;;;;;5034513;28;20451;-84
2022/04/08 06:10:26;;;;;;;1.47;0.70;;;22.40;51.60;;;;;;5050876;28;20474;-85
2022/04/08 06:12:59;;;;;;;1.10;0.63;;;22.40;51.60;;;;;;5034539;28;20403;-85
2022/04/08 06:15:26;;;;;;;1.23;0.80;;;22.40;51.60;;;;;;5035179;28;20448;-84
2022/04/08 06:17:52;;;;;;;2.00;0.80;;;22.40;51.60;;;;;;5033239;28;20426;-84
2022/04/08 06:20:31;;;;;;;1.00;0.83;;;22.40;51.60;;;;;;5033160;28;20477;-83
2022/04/08 06:23:18;;;;;;;1.07;0.60;;;22.40;51.60;;;;;;5036970;28;20411;-84
2022/04/08 06:25:43;;;;;;;0.90;0.67;;;22.40;51.60;;;;;;5034398;28;20403;-84
2022/04/08 06:28:09;;;;;;;0.90;0.60;;;22.40;51.60;;;;;;5034150;28;20455;-85
2022/04/08 06:30:37;;;;;;;1.73;0.70;;;22.40;51.60;;;;;;5035767;28;20226;-85
2022/04/08 06:33:10;;;;;;;1.67;0.67;;;22.40;51.60;;;;;;5032134;28;20211;-85
2022/04/08 06:35:36;;;;;;;2.17;0.80;;;22.40;51.60;;;;;;5034840;28;20407;-84
2022/04/08 06:38:06;;;;;;;0.97;0.70;;;22.40;51.60;;;;;;5036477;28;20434;-85
2022/04/08 06:40:35;;;;;;;0.80;0.60;;;22.40;51.60;;;;;;5018268;28;20419;-85
2022/04/08 06:43:02;;;;;;;1.00;0.60;;;22.40;51.60;;;;;;5035155;28;20411;-84
2022/04/08 06:45:29;;;;;;;0.90;0.60;;;22.40;51.60;;;;;;5017874;28;20434;-85
2022/04/08 06:47:55;;;;;;;0.90;0.60;;;22.40;51.60;;;;;;5034324;28;20454;-84
2022/04/08 06:50:25;;;;;;;0.80;0.60;;;22.40;51.60;;;;;;5033479;28;20483;-84
2022/04/08 06:53:00;;;;;;;1.87;0.70;;;22.40;51.60;;;;;;5033445;28;20412;-85
2022/04/08 06:55:29;;;;;;;1.07;0.60;;;22.40;51.60;;;;;;5017412;28;20434;-84
2022/04/08 06:58:02;;;;;;;1.00;0.63;;;22.40;51.60;;;;;;5032557;28;20976;-84
2022/04/08 07:00:28;;;;;;;1.73;0.67;;;22.40;51.60;;;;;;5034740;28;20408;-84
2022/04/08 07:02:58;;;;;;;1.27;0.67;;;22.40;51.60;;;;;;5034634;28;20480;-84
2022/04/08 07:05:28;;;;;;;0.80;0.60;;;22.40;51.60;;;;;;5034292;28;20461;-84
2022/04/08 07:07:54;;;;;;;0.80;0.60;;;22.40;51.60;;;;;;5033286;28;20491;-84
2022/04/08 07:10:23;;;;;;;0.70;0.60;;;22.40;51.60;;;;;;5034415;28;20438;-84
2022/04/08 07:12:50;;;;;;;1.53;0.70;;;22.40;51.60;;;;;;5033408;28;20203;-84
2022/04/08 07:15:15;;;;;;;1.00;0.70;;;22.40;51.60;;;;;;5017280;28;20423;-84
2022/04/08 07:17:44;;;;;;;1.00;0.60;;;22.40;51.60;;;;;;5033508;28;20430;-84
2022/04/08 07:20:14;;;;;;;0.80;0.60;;;22.40;51.60;;;;;;5034983;28;20446;-84
2022/04/08 07:22:41;;;;;;;1.73;0.60;;;22.40;51.60;;;;;;5034935;28;20419;-86
2022/04/08 07:25:08;;;;;;;1.20;0.70;;;22.40;51.60;;;;;;5031639;28;20928;-87
2022/04/08 07:27:43;;;;;;;1.20;0.70;;;22.40;51.60;;;;;;5014595;28;20495;-86
2022/04/08 07:30:11;;;;;;;0.90;0.67;;;22.40;51.60;;;;;;5033081;28;20494;-87
2022/04/08 07:32:37;;;;;;;0.90;0.70;;;22.40;51.60;;;;;;5015228;28;20439;-86
2022/04/08 07:35:07;;;;;;;1.27;0.60;;;22.40;51.60;;;;;;5033197;28;20428;-87
2022/04/08 07:37:36;;;;;;;1.93;0.70;;;22.40;51.60;;;;;;5033032;28;20431;-87
2022/04/08 07:40:09;;;;;;;1.00;0.70;;;22.40;51.60;;;;;;5031830;28;20419;-86
2022/04/08 07:42:35;;;;;;;1.07;0.60;;;22.30;51.50;;;;;;5029383;28;20415;-87
2022/04/08 07:45:04;;;;;;;0.70;0.50;;;22.30;51.60;;;;;;5030655;28;20482;-86
2022/04/08 07:47:31;;;;;;;1.90;0.70;;;22.40;51.60;;;;;;5030616;28;20984;-87
2022/04/08 07:50:02;;;;;;;1.00;0.70;;;22.30;51.60;;;;;;5029196;28;20412;-87
2022/04/08 07:52:31;;;;;;;0.97;0.50;;;22.40;51.60;;;;;;5037611;28;20460;-87
2022/04/08 07:54:58;;;;;;;0.87;0.70;;;22.40;51.60;;;;;;5048780;28;20441;-87
2022/04/08 07:57:26;;;;;;;0.90;0.60;;;22.30;51.60;;;;;;5050313;28;20844;-87
2022/04/08 07:59:52;;;;;;;0.90;0.50;;;22.30;51.60;;;;;;5037501;28;20424;-88
2022/04/08 08:02:18;;;;;;;1.73;0.70;;;22.30;51.50;;;;;;5030713;28;20944;-87
2022/04/08 08:04:46;;;;;;;0.97;0.80;;;22.40;52.30;;;;;;5028880;28;20450;-87
2022/04/08 08:07:12;;;;;;;1.47;0.70;;;22.30;51.60;;;;;;5026328;28;20204;-88
2022/04/08 08:09:52;;;;;;;0.80;0.60;;;22.40;51.60;;;;;;5028325;28;20450;-87
2022/04/08 08:12:36;;;;;;;1.20;0.60;;;22.40;51.60;;;;;;5029201;28;20446;-87
2022/04/08 08:15:18;;;;;;;0.90;0.60;;;22.40;51.60;;;;;;5030623;28;20435;-85
2022/04/08 08:17:55;;;;;;;1.17;0.50;;;22.30;51.60;;;;;;5014550;28;20419;-87
2022/04/08 08:20:22;;;;;;;0.80;0.60;;;22.30;51.60;;;;;;5046427;28;20466;-86
2022/04/08 08:22:56;;;;;;;1.10;0.80;;;22.30;51.60;;;;;;5031212;28;20404;-85
2022/04/08 08:25:30;;;;;;;0.80;0.60;;;22.30;51.60;;;;;;5032008;28;20419;-86
2022/04/08 08:27:59;;;;;;;0.70;0.50;;;22.30;51.60;;;;;;5016846;28;20459;-86
2022/04/08 08:30:29;;;;;;;0.90;0.73;;;22.30;51.60;;;;;;5029503;28;20773;-87
2022/04/08 08:32:59;;;;;;;0.80;0.50;;;22.40;51.70;;;;;;5031779;28;20478;-86
2022/04/08 08:35:28;;;;;;;0.83;0.60;;;22.30;51.60;;;;;;5047849;28;20412;-87
2022/04/08 08:38:08;;;;;;;;;;;;;;;;;;;;;
2022/04/08 08:43:57;;;;;;;0.93;0.63;;;22.40;51.70;;;;;;4969922;29;20386;-87
2022/04/08 08:46:36;;;;;;;0.80;0.60;;;22.30;51.60;;;;;;4969879;29;20462;-87
2022/04/08 08:49:04;;;;;;;0.80;0.60;;;22.30;51.60;;;;;;4954030;29;20430;-88
2022/04/08 08:51:55;;;;;;;0.80;0.50;;;22.30;51.60;;;;;;4969702;29;20414;-87
2022/04/08 08:54:25;;;;;;;1.00;0.70;;;22.30;51.60;;;;;;4952304;29;20450;-86
2022/04/08 08:56:55;;;;;;;0.80;0.60;;;22.40;51.70;;;;;;4968927;29;20422;-86
2022/04/08 08:59:31;;;;;;;0.90;0.60;;;22.30;51.60;;;;;;4968399;29;20426;-87
2022/04/08 09:02:01;;;;;;;0.80;0.60;;;22.30;51.60;;;;;;4967558;29;20485;-86
2022/04/08 09:04:27;;;;;;;0.90;0.67;;;22.30;51.60;;;;;;4968275;28;20473;-88
2022/04/08 09:06:53;;;;;;;0.80;0.60;;;22.30;51.60;;;;;;4968364;29;20465;-87
2022/04/08 09:09:32;;;;;;;1.13;0.67;;;22.30;51.60;;;;;;4968923;29;20430;-87
2022/04/08 09:12:16;;;;;;;0.97;0.60;;;22.30;51.60;;;;;;4968605;29;20434;-87
2022/04/08 09:14:50;;;;;;;1.00;0.60;;;22.30;51.60;;;;;;4968591;29;20437;-87
2022/04/08 09:17:18;;;;;;;0.80;0.60;;;22.30;51.60;;;;;;4984349;28;20931;-86
2022/04/08 09:19:50;;;;;;;1.60;0.70;;;22.30;51.60;;;;;;5027300;28;20427;-86
2022/04/08 09:22:17;;;;;;;0.80;0.60;;;22.30;51.60;;;;;;5027663;28;20462;-87
2022/04/08 09:24:43;;;;;;;1.50;0.57;;;22.30;51.70;;;;;;5026510;28;20476;-87
2022/04/08 09:27:10;;;;;;;0.90;0.60;;;22.30;51.60;;;;;;5042801;28;20563;-87
2022/04/08 09:29:36;;;;;;;1.10;0.70;;;22.30;51.60;;;;;;5020915;28;20496;-87
2022/04/08 09:32:13;;;;;;;1.37;0.53;;;22.30;51.60;;;;;;5043441;28;20415;-88
2022/04/08 09:34:41;;;;;;;0.80;0.60;;;22.30;51.60;;;;;;5019541;28;20427;-86
2022/04/08 09:37:15;;;;;;;1.13;0.60;;;22.30;51.60;;;;;;5024246;28;20758;-87
2022/04/08 09:39:59;;;;;;;0.80;0.60;;;22.30;51.60;;;;;;5044701;28;20439;-87
2022/04/08 09:42:47;;;;;;;1.00;0.60;;;22.30;51.60;;;;;;5028277;28;20424;-88
2022/04/08 09:45:13;;;;;;;0.80;0.50;;;22.30;51.60;;;;;;5040226;28;20427;-88
2022/04/08 09:47:40;;;;;;;1.00;0.60;;;22.30;51.60;;;;;;5028879;28;20462;-88
2022/04/08 09:50:09;;;;;;;0.87;0.60;;;22.30;51.60;;;;;;5043110;28;20783;-88
2022/04/08 09:52:39;;;;;;;0.80;0.60;;;22.30;52.20;;;;;;5027660;28;20427;-87
2022/04/08 09:55:07;;;;;;;0.93;0.60;;;22.30;51.60;;;;;;5043603;28;20442;-88
2022/04/08 09:57:37;;;;;;;0.73;0.53;;;22.30;51.60;;;;;;5023269;28;20455;-87
2022/04/08 10:00:04;;;;;;;0.70;0.50;;;22.30;51.60;;;;;;5026434;28;20435;-88
2022/04/08 10:02:36;;;;;;;0.90;0.60;;;22.30;51.60;;;;;;5027598;28;20431;-88
2022/04/08 10:05:03;;;;;;;0.80;0.50;;;22.30;51.60;;;;;;5042984;28;20423;-88
2022/04/08 10:07:30;;;;;;;1.03;0.60;;;22.30;51.60;;;;;;5027083;28;20469;-87
2022/04/08 10:10:02;;;;;;;0.77;0.60;;;22.30;51.60;;;;;;5027693;28;20442;-88
2022/04/08 10:12:32;;;;;;;0.73;0.50;;;22.30;51.60;;;;;;5024616;28;20414;-87
2022/04/08 10:15:17;;;;;;;0.93;0.60;;;22.30;51.60;;;;;;5026573;28;20925;-87
2022/04/08 10:17:43;;;;;;;0.80;0.60;;;22.30;51.60;;;;;;5027042;28;20422;-86
2022/04/08 10:20:21;;;;;;;0.70;0.50;;;22.30;51.60;;;;;;5026145;28;20472;-87
2022/04/08 10:23:06;;;;;;;0.80;0.50;;;22.30;51.60;;;;;;5027811;28;20180;-87
2022/04/08 10:25:46;;;;;;;0.80;0.60;;;22.30;51.60;;;;;;5022921;28;20462;-88
2022/04/08 10:28:12;;;;;;;0.90;0.60;;;22.30;51.60;;;;;;5027873;28;20642;-87
2022/04/08 10:30:52;;;;;;;0.90;0.60;;;22.30;51.60;;;;;;5030602;28;20458;-87
2022/04/08 10:33:28;;;;;;;1.00;0.70;;;22.30;51.60;;;;;;5045232;28;20176;-87
2022/04/08 10:35:59;;;;;;;1.33;0.70;;;22.30;51.60;;;;;;5030593;28;20502;-87
2022/04/08 10:38:38;;;;;;;0.80;0.60;;;22.30;51.60;;;;;;5030396;28;20513;-87
2022/04/08 10:41:10;;;;;;;0.80;0.60;;;22.30;51.60;;;;;;5046300;28;20433;-86
2022/04/08 10:44:02;;;;;;;1.00;0.57;;;22.30;51.60;;;;;;5029360;28;20438;-87
2022/04/08 10:46:30;;;;;;;0.80;0.60;;;22.30;51.60;;;;;;5006662;28;20517;-88
2022/04/08 10:48:59;;;;;;;1.00;0.60;;;22.20;51.60;;;;;;5047904;28;20423;-86
2022/04/08 10:51:31;;;;;;;0.80;0.60;;;22.20;51.50;;;;;;5024248;28;20493;-86
2022/04/08 10:54:05;;;;;;;1.07;0.80;;;22.20;51.50;;;;;;5029259;28;20490;-86
2022/04/08 10:56:37;;;;;;;0.97;0.80;;;22.30;51.60;;;;;;5030365;28;20498;-85
2022/04/08 10:59:04;;;;;;;0.80;0.57;;;22.30;51.60;;;;;;5032737;28;20415;-86
2022/04/08 11:01:36;;;;;;;1.20;0.90;;;22.20;51.50;;;;;;5047618;28;20431;-85
2022/04/08 11:04:07;;;;;;;1.87;1.30;;;22.30;51.60;;;;;;5032505;28;20444;-86
2022/04/08 11:06:36;;;;;;;4.77;2.20;;;22.30;51.60;;;;;;5030967;28;20463;-85
2022/04/08 11:09:14;;;;;;;6.20;2.40;;;22.30;51.60;;;;;;5032366;28;20426;-85
2022/04/08 11:11:41;;;;;;;8.93;4.97;;;22.30;51.60;;;;;;5031297;28;20446;-85
2022/04/08 11:14:11;;;;;;;6.70;4.07;;;22.20;51.60;;;;;;5031958;28;20423;-86
2022/04/08 11:16:39;;;;;;;9.67;4.40;;;22.30;51.70;;;;;;5031810;28;20436;-86
2022/04/08 11:19:09;;;;;;;21.10;8.00;;;22.20;51.60;;;;;;5030726;28;20427;-85
2022/04/08 11:21:40;;;;;;;11.43;5.60;;;22.30;51.70;;;;;;5030788;28;20434;-86
2022/04/08 11:24:21;;;;;;;9.23;5.67;;;22.30;51.70;;;;;;5029786;28;20478;-86
2022/04/08 11:26:53;;;;;;;12.60;5.70;;;22.30;52.20;;;;;;5024686;28;20554;-86
2022/04/08 11:29:23;;;;;;;14.63;6.27;;;22.30;51.70;;;;;;5030355;28;20426;-86
2022/04/08 11:31:52;;;;;;;10.90;5.17;;;22.20;51.60;;;;;;5031593;28;20427;-87
2022/04/08 11:34:41;;;;;;;10.83;4.90;;;22.30;51.70;;;;;;5030055;28;20430;-87
2022/04/08 11:37:06;;;;;;;13.10;6.17;;;22.30;51.70;;;;;;5032128;28;20407;-87
2022/04/08 11:39:40;;;;;;;14.17;5.53;;;22.30;51.70;;;;;;5029384;28;20492;-87
2022/04/08 11:42:20;;;;;;;11.80;5.83;;;22.30;51.70;;;;;;5030277;28;20184;-87
2022/04/08 11:45:02;;;;;;;9.87;5.40;;;22.30;51.70;;;;;;5046469;28;20411;-88
2022/04/08 11:47:39;;;;;;;12.03;5.33;;;22.30;51.70;;;;;;5046477;28;20458;-87
2022/04/08 11:50:40;;;;;;;;;;;;;;;;;;;;;
2022/04/08 11:53:21;;;;;;;11.70;4.40;;;22.30;51.70;;;;;;5025331;28;20458;-87
2022/04/08 11:56:04;;;;;;;8.27;4.40;;;22.30;51.80;;;;;;5038414;28;20435;-87
2022/04/08 11:58:31;;;;;;;9.90;4.37;;;22.30;51.80;;;;;;5038567;28;20419;-87
2022/04/08 12:01:00;;;;;;;8.50;5.27;;;22.30;51.70;;;;;;5029964;28;20431;-87
2022/04/08 12:03:32;;;;;;;8.63;4.27;;;22.30;51.80;;;;;;5022123;28;20550;-87
2022/04/08 12:06:00;;;;;;;10.70;4.90;;;22.30;51.70;;;;;;5030124;28;20415;-87
2022/04/08 12:08:28;;;;;;;7.93;4.47;;;22.30;51.70;;;;;;5030492;28;20456;-87
2022/04/08 12:11:05;;;;;;;8.40;4.03;;;22.30;52.30;;;;;;5018505;28;20428;-87
2022/04/08 12:13:34;;;;;;;7.80;4.30;;;22.30;51.70;;;;;;5020233;28;20432;-87
2022/04/08 12:16:07;;;;;;;5.90;3.77;;;22.30;51.70;;;;;;5034097;28;20448;-87
2022/04/08 12:18:34;;;;;;;8.77;3.90;;;22.30;51.70;;;;;;5028496;28;20406;-87
2022/04/08 12:21:04;;;;;;;11.20;3.70;;;22.30;51.70;;;;;;5022351;28;20423;-87
2022/04/08 12:23:30;;;;;;;8.57;4.07;;;22.30;51.70;;;;;;5030537;28;20176;-87
2022/04/08 12:26:04;;;;;;;8.70;4.10;;;22.30;51.80;;;;;;5030359;28;20406;-87
2022/04/08 12:28:35;;;;;;;6.73;4.60;;;22.30;51.80;;;;;;5029028;28;21120;-87
2022/04/08 12:31:18;;;;;;;12.00;4.17;;;22.30;51.70;;;;;;5028498;28;20434;-88
2022/04/08 12:33:44;;;;;;;7.60;4.40;;;22.30;51.80;;;;;;5045123;28;20399;-87
2022/04/08 12:36:11;;;;;;;7.43;3.70;;;22.30;51.80;;;;;;5028726;28;20422;-87
2022/04/08 12:38:42;;;;;;;6.80;3.97;;;22.30;51.80;;;;;;5042628;28;20415;-87
2022/04/08 12:41:11;;;;;;;7.57;3.67;;;22.30;51.80;;;;;;5027415;28;20446;-87
2022/04/08 12:43:40;;;;;;;9.53;4.70;;;22.30;51.80;;;;;;5029100;28;20422;-88
2022/04/08 12:46:13;;;;;;;7.93;3.70;;;22.30;51.80;;;;;;5028387;28;20424;-88
2022/04/08 12:48:44;;;;;;;8.80;4.17;;;22.30;51.80;;;;;;5026609;28;20450;-86
2022/04/08 12:51:10;;;;;;;10.17;4.30;;;22.30;51.80;;;;;;5028615;28;20447;-85
2022/04/08 12:53:36;;;;;;;9.70;4.57;;;22.30;51.80;;;;;;5027804;28;20431;-87
2022/04/08 12:56:04;;;;;;;12.30;4.60;;;22.30;51.80;;;;;;5025466;28;20257;-88
2022/04/08 12:58:30;;;;;;;6.80;3.77;;;22.30;51.80;;;;;;5024879;28;20462;-88
2022/04/08 13:00:57;;;;;;;5.97;3.77;;;22.30;51.80;;;;;;5028700;28;20415;-88